Anton Chico, NM (87711)

1:16 PM MST on December 22, 2014 (GMT -0700)
Bobcat Hill | Change Station
CLOSE
Current Station
Personal Weather Station
Location: Milagro, NM
Elevation: 5886 ft
Nearby Weather Stations

Elev 5886 ft 34.93 °N, 105.18 °W | Updated 1 minute ago

Partly Cloudy
Partly Cloudy
55.2 °F
Feels Like 55.2 °F
N
26.0
Wind Variable Wind from WNW
Gusts 42.0 mph

Today
High -- | Low -- °F
--% Chance of Precip.
Yesterday
High -- | Low -- °F
Precip. -- in
7:05 AM 4:52 PM
New Moon, 1% visible
Pressure 29.56 in
Visibility 10.0 miles
Clouds Clear
Dew Point 31 °F
Humidity 39%
Rainfall 0.00 in
Snow Depth Not available.
UV 3 out of 12
Pollen 5.00 out of 12
Air Quality Not available.
Flu Activity Not available.
METAR KCQC 221953Z AUTO 29035G45KT 10SM CLR 11/M03 A2970 RMK AO2 PK WND 30046/1926 SLP008 T01111028

More Conditions Fewer Conditions

Pressure 29.56 in
Visibility 10.0 miles
Clouds Clear
Dew Point 31 °F
Humidity 39%
Rainfall 0.00 in
Snow Depth Not available.
UV 3 out of 12
Pollen 5.00 out of 12
Air Quality Not available.
Flu Activity Not available.
METAR KCQC 221953Z AUTO 29035G45KT 10SM CLR 11/M03 A2970 RMK AO2 PK WND 30046/1926 SLP008 T01111028

More Conditions Fewer Conditions

Nowcast | as of 12:31 PM MST on December 22, 2014

Strong and gusty northwest winds will impact many central areas of New Mexico...as well as some High Plains areas just east. Sustained wind speeds of 20 to 35 mph with occasional gusts between 40 and 60 mph can be expected through the early afternoon. Strong cross winds can be expected on southwest to northeast oriented roads such as U.S. 54 near Corona to Santa Rosa. Even stronger winds with some blowing dust at times can be expected from midday on.

×

10-Day Weather Forecast

Almanac

Astronomy

Dec. 22, 2014 Rise Set
Actual Time
Civil Twilight
Nautical Twilight
Astronomical Twilight
Moon
Length of Visible Light
Length of Day
Tomorrow will be .
, % of the Moon is Illuminated

Today's Extremes

State Highs State Lows

Community

WunderPhotos

Upload Photos

1,779,708 photos uploaded!

WunderBlogs® & News

Nearby

Air Quality

  Air Quality AQ Index Pollutant
Not available.

Snow Depth

Station Depth Elevation

Earthquake Activity

City Distance Mag. Time & Date
Minimum magnitude displayed is 2.5.

Coastal Water Temperatures

Place Temperature

Nearby Weather Stations